Terminal Aerodrome Forecast
Issued by NWS Pittsburgh, PA

Current Version | Previous Version | Graphics & Text | Print | Product List | Glossary On
Versions: 1 2 3 4 5 6 7 8 9 10 11 12 13 14 15 16 17 18 19 20 21 22 23 24 25 26 27 28 29
538
FTUS41 KPBZ 210853 AAB
TAFPIT
TAF AMD
KPIT 210853Z 2109/2212 00000KT P6SM SKC
      TEMPO 2110/2113 3SM BR
     FM211300 VRB03KT P6SM SCT040=

USA.gov is the U.S. government's official web portal to all federal, state and local government web resources and services.